Sidney Municipal-Lloyd W Carr Field
KSNY : now visible

Airfield :











YOU CAN JOIN US ON...

 
LOGIN :

Register | Disclaimer

   EN    FR    IT 

 









Legend :    VFR   Marginal VFR   IFR   Intensive IFR   Very Intensive IFR
Visi :
Ceiling :
>= 8 km
>= 3000ft
5 to 8 km
1000 to 3000 ft
1500m to 5 km
500 to 1000 ft
800 to 1500m
200 to 500 ft
< 800m
< 200 ft
Symbols :   Thunderstorms  Fog  Heavy snow  Heavy precipitations  Wind > 20 kt






- Airport Elevation : 4313 ft


KSNY - Sidney Municipal-Lloyd W Carr Field

CURRENT METAR :
  • 262353Z AUTO 34009KT 10SM CLR 24/02 A2995 RMK AO2 SLP114 T02440017 10261 20222 51004

EXPIRED METARs :
  • 262253Z AUTO 36014G20KT 10SM CLR 25/02 A2994 RMK AO2 SLP112 T02500017
  • 262153Z AUTO 01014KT 10SM CLR 26/01 A2994 RMK AO2 SLP114 T02560011

TAF KSNY
Valid from the 27 at 00:00 until the 28 at 00:00 UTC


262320Z 2700/2724 35015KT P6SM FEW080
FM270100 VRB05KT P6SM SKC
KZDV FIR / North America



MET'MAP, your aeronautical weather chart ! - Copyright ORBIFLY December 2007 - Disclaimer

ORBIFLY MET'MAP TEAM :

Programming & Development : Alexandra Zaïnal
Concept & original design : Baudouin d'Aumeries
Assistance for programming : Marc-Olivier Méhu
Technical & hardware support : Manuel Goepfert

Contact : metmap@orbifly.com




SOURCES & CREDITS :

   NOAA       Earth
Advisory